createdAt,value
2019-05-26T00:01:11.429Z,9.80
2019-05-26T00:03:59.767Z,9.70
2019-05-26T00:06:28.285Z,9.70
2019-05-26T00:08:56.888Z,9.60
2019-05-26T00:11:25.463Z,9.60
2019-05-26T00:13:54.765Z,9.60
2019-05-26T00:16:24.459Z,9.60
2019-05-26T00:18:53.358Z,9.50
2019-05-26T00:21:23.157Z,9.50
2019-05-26T00:23:55.551Z,9.50
2019-05-26T00:26:24.881Z,9.40
2019-05-26T00:29:20.252Z,9.40
2019-05-26T00:32:09.630Z,9.40
2019-05-26T00:34:38.063Z,9.40
2019-05-26T00:37:06.530Z,9.40
2019-05-26T00:39:34.993Z,9.30
2019-05-26T00:42:03.530Z,9.30
2019-05-26T00:44:32.113Z,9.30
2019-05-26T00:47:00.723Z,9.20
2019-05-26T00:49:29.162Z,9.20
2019-05-26T00:51:57.617Z,9.20
2019-05-26T00:54:26.056Z,9.10
2019-05-26T00:56:54.595Z,9.10
2019-05-26T00:59:25.831Z,9.10
2019-05-26T01:01:54.306Z,9.00
2019-05-26T01:04:22.846Z,9.00
2019-05-26T01:06:51.305Z,9.00
2019-05-26T01:09:19.755Z,9.00
2019-05-26T01:11:48.216Z,8.90
2019-05-26T01:14:16.711Z,8.90
2019-05-26T01:16:47.245Z,8.90
2019-05-26T01:19:15.695Z,8.90
2019-05-26T01:21:44.158Z,8.90
2019-05-26T01:24:12.661Z,8.80
2019-05-26T01:27:00.470Z,8.80
2019-05-26T01:29:28.882Z,8.80
2019-05-26T01:31:57.398Z,8.80
2019-05-26T01:34:25.914Z,8.70
2019-05-26T01:36:54.825Z,8.70
2019-05-26T01:39:43.311Z,8.60
2019-05-26T01:42:11.993Z,8.60
2019-05-26T01:44:40.905Z,8.60
2019-05-26T01:47:17.431Z,8.50
2019-05-26T01:49:48.292Z,8.50
2019-05-26T01:52:36.133Z,8.50
2019-05-26T01:55:06.103Z,8.50
2019-05-26T01:57:34.565Z,8.40
2019-05-26T02:00:03.079Z,8.40
2019-05-26T02:02:31.522Z,8.40
2019-05-26T02:04:59.966Z,8.40
2019-05-26T02:07:28.425Z,8.40
2019-05-26T02:09:56.898Z,8.40
2019-05-26T02:12:25.781Z,8.40
2019-05-26T02:14:55.279Z,8.30
2019-05-26T02:17:24.741Z,8.30
2019-05-26T02:19:53.660Z,8.30
2019-05-26T02:25:14.860Z,8.30
2019-05-26T02:27:43.798Z,8.30
2019-05-26T02:30:12.779Z,8.30
2019-05-26T02:32:41.899Z,8.20
2019-05-26T02:35:12.851Z,8.20
2019-05-26T02:37:41.846Z,8.20
2019-05-26T02:40:11.980Z,8.10
2019-05-26T02:42:40.771Z,8.10
2019-05-26T02:45:11.974Z,8.10
2019-05-26T02:48:00.342Z,8.00
2019-05-26T02:50:28.829Z,8.10
2019-05-26T02:52:57.371Z,8.10
2019-05-26T02:55:26.698Z,8.10
2019-05-26T02:57:56.408Z,8.10
2019-05-26T03:00:42.529Z,8.10
2019-05-26T03:03:31.896Z,8.00
2019-05-26T03:06:01.253Z,8.00
2019-05-26T03:08:50.548Z,8.00
2019-05-26T03:11:20.459Z,8.00
2019-05-26T03:13:49.715Z,7.90
2019-05-26T03:16:20.788Z,7.90
2019-05-26T03:18:51.751Z,7.90
2019-05-26T03:21:22.991Z,7.80
2019-05-26T03:23:53.716Z,7.80
2019-05-26T03:26:23.727Z,7.80
2019-05-26T03:29:11.762Z,7.80
2019-05-26T03:31:41.404Z,7.80
2019-05-26T03:34:10.107Z,7.80
2019-05-26T03:36:38.749Z,7.80
2019-05-26T03:39:07.674Z,7.80
2019-05-26T03:41:36.100Z,7.80
2019-05-26T03:44:04.620Z,7.70
2019-05-26T03:46:33.064Z,7.70
2019-05-26T03:49:01.511Z,7.70
2019-05-26T03:51:30.022Z,7.70
2019-05-26T03:53:58.442Z,7.70
2019-05-26T03:56:26.889Z,7.70
2019-05-26T03:59:20.125Z,7.80
2019-05-26T04:02:50.106Z,7.80
2019-05-26T04:05:20.301Z,7.80
2019-05-26T04:10:43.205Z,7.70
2019-05-26T04:13:11.881Z,7.70
2019-05-26T04:15:40.818Z,7.70
2019-05-26T04:18:10.018Z,7.80
2019-05-26T04:20:39.514Z,7.90
2019-05-26T04:23:08.490Z,7.90
2019-05-26T04:25:57.123Z,8.00
2019-05-26T04:28:26.755Z,8.00
2019-05-26T04:30:55.452Z,8.00
2019-05-26T04:33:24.751Z,8.10
2019-05-26T04:35:53.612Z,8.20
2019-05-26T04:38:24.498Z,8.20
2019-05-26T04:40:53.482Z,8.20
2019-05-26T04:43:23.494Z,8.30
2019-05-26T04:45:52.685Z,8.40
2019-05-26T04:48:22.186Z,8.40
2019-05-26T04:50:54.567Z,8.50
2019-05-26T04:53:23.283Z,8.50
2019-05-26T04:55:53.969Z,8.50
2019-05-26T04:58:24.563Z,8.60
2019-05-26T05:00:54.220Z,8.90
2019-05-26T05:03:23.056Z,9.50
2019-05-26T05:05:52.527Z,10.00
2019-05-26T05:08:23.367Z,10.50
2019-05-26T05:10:52.654Z,10.90
2019-05-26T05:13:40.676Z,11.30
2019-05-26T05:16:10.176Z,11.60
2019-05-26T05:18:39.161Z,12.10
2019-05-26T05:21:10.298Z,12.10
2019-05-26T05:23:41.799Z,12.00
2019-05-26T05:29:03.194Z,12.50
2019-05-26T05:31:39.869Z,13.30
2019-05-26T05:34:08.499Z,14.00
2019-05-26T05:36:37.786Z,14.40
2019-05-26T05:39:13.698Z,14.40
2019-05-26T05:41:43.143Z,14.10
2019-05-26T05:44:12.120Z,14.50
2019-05-26T05:46:40.956Z,14.70
2019-05-26T05:49:10.536Z,15.10
2019-05-26T05:51:58.560Z,15.30
2019-05-26T05:57:20.486Z,15.40
2019-05-26T06:00:10.515Z,16.10
2019-05-26T06:05:31.589Z,16.20
2019-05-26T06:08:00.108Z,16.00
2019-05-26T06:10:28.519Z,16.00
2019-05-26T06:12:56.983Z,15.80
2019-05-26T06:15:25.483Z,15.70
2019-05-26T06:17:56.949Z,15.90
2019-05-26T06:23:37.930Z,15.60
2019-05-26T06:26:06.427Z,15.50
2019-05-26T06:29:11.870Z,16.10
2019-05-26T06:31:41.207Z,16.40
2019-05-26T06:34:10.673Z,16.20
2019-05-26T06:36:39.960Z,16.70
2019-05-26T06:39:08.998Z,17.10
2019-05-26T06:41:58.448Z,17.00
2019-05-26T06:44:27.146Z,17.60
2019-05-26T06:47:14.931Z,18.00
2019-05-26T06:49:43.390Z,17.70
2019-05-26T06:52:14.543Z,18.20
2019-05-26T06:54:42.978Z,17.90
2019-05-26T06:57:11.418Z,18.40
2019-05-26T06:59:39.901Z,18.60
2019-05-26T07:02:08.493Z,18.00
2019-05-26T07:04:36.927Z,17.50
2019-05-26T07:07:05.444Z,17.30
2019-05-26T07:09:34.008Z,17.30
2019-05-26T07:12:02.426Z,17.70
2019-05-26T07:14:43.318Z,18.00
2019-05-26T07:17:11.900Z,18.50
2019-05-26T07:19:40.368Z,18.70
2019-05-26T07:22:09.149Z,17.90
2019-05-26T07:24:37.685Z,17.60
2019-05-26T07:27:06.106Z,17.60
2019-05-26T07:29:34.585Z,18.10
2019-05-26T07:32:03.338Z,19.10
2019-05-26T07:34:31.789Z,18.70
2019-05-26T07:37:00.217Z,19.30
2019-05-26T07:39:28.839Z,19.50
2019-05-26T07:44:47.612Z,19.90
2019-05-26T07:47:16.053Z,19.90
2019-05-26T07:49:44.508Z,19.80
2019-05-26T07:52:12.931Z,19.60
2019-05-26T07:54:41.352Z,19.60
2019-05-26T07:57:09.811Z,19.20
2019-05-26T07:59:38.387Z,19.10
2019-05-26T08:02:09.995Z,19.00
2019-05-26T08:04:47.978Z,18.90
2019-05-26T08:07:22.713Z,18.90
2019-05-26T08:09:49.301Z,18.80
2019-05-26T08:12:26.145Z,18.70
2019-05-26T08:14:47.976Z,18.90
2019-05-26T08:17:16.697Z,18.60
2019-05-26T08:19:45.222Z,18.40
2019-05-26T08:22:13.924Z,18.50
2019-05-26T08:24:42.587Z,18.70
2019-05-26T08:27:15.484Z,18.80
2019-05-26T08:29:46.864Z,19.00
2019-05-26T08:32:15.319Z,19.30
2019-05-26T08:34:43.719Z,19.20
2019-05-26T08:37:12.130Z,19.20
2019-05-26T08:39:40.575Z,19.40
2019-05-26T08:42:09.025Z,19.50
2019-05-26T08:44:37.455Z,19.30
2019-05-26T08:47:06.120Z,19.50
2019-05-26T08:49:34.551Z,19.40
2019-05-26T08:52:02.976Z,19.40
2019-05-26T08:54:31.400Z,19.20
2019-05-26T08:56:59.905Z,19.40
2019-05-26T08:59:28.325Z,19.40
2019-05-26T09:01:56.763Z,19.70
2019-05-26T09:04:25.171Z,20.00
2019-05-26T09:06:53.605Z,20.20
2019-05-26T09:09:22.033Z,19.90
2019-05-26T09:11:50.457Z,19.80
2019-05-26T09:14:18.894Z,19.60
2019-05-26T09:16:47.385Z,19.30
2019-05-26T09:19:15.808Z,19.20
2019-05-26T09:21:44.242Z,19.20
2019-05-26T09:24:12.686Z,19.30
2019-05-26T09:26:41.114Z,19.10
2019-05-26T09:29:09.642Z,18.90
2019-05-26T09:31:38.082Z,19.90
2019-05-26T09:34:06.566Z,19.80
2019-05-26T09:36:35.012Z,19.40
2019-05-26T09:39:22.829Z,19.40
2019-05-26T09:41:51.267Z,19.20
2019-05-26T09:44:19.872Z,19.10
2019-05-26T09:46:48.458Z,19.50
2019-05-26T09:49:17.005Z,20.10
2019-05-26T09:51:45.642Z,20.30
2019-05-26T09:54:14.127Z,19.80
2019-05-26T09:56:42.768Z,19.80
2019-05-26T09:59:11.246Z,19.50
2019-05-26T10:01:39.922Z,19.60
2019-05-26T10:04:28.341Z,19.80
2019-05-26T10:06:56.906Z,20.60
2019-05-26T10:09:26.883Z,20.30
2019-05-26T10:12:14.859Z,20.20
2019-05-26T10:14:43.415Z,20.30
2019-05-26T10:17:11.871Z,20.10
2019-05-26T10:19:40.321Z,19.80
2019-05-26T10:22:08.837Z,19.80
2019-05-26T10:24:37.257Z,20.30
2019-05-26T10:27:05.754Z,20.00
2019-05-26T10:29:34.199Z,19.90
2019-05-26T10:32:02.673Z,20.00
2019-05-26T10:34:31.152Z,20.40
2019-05-26T10:36:59.584Z,20.30
2019-05-26T10:39:28.024Z,20.20
2019-05-26T10:41:56.471Z,20.00
2019-05-26T10:44:24.945Z,19.90
2019-05-26T10:46:53.473Z,20.40
2019-05-26T10:49:21.992Z,20.50
2019-05-26T10:51:50.410Z,20.30
2019-05-26T10:54:18.900Z,20.30
2019-05-26T10:56:47.316Z,20.30
2019-05-26T10:59:15.790Z,20.00
2019-05-26T11:01:44.328Z,20.20
2019-05-26T11:04:12.787Z,20.50
2019-05-26T11:06:41.557Z,20.50
2019-05-26T11:09:10.025Z,21.00
2019-05-26T11:11:38.533Z,20.90
2019-05-26T11:14:07.133Z,20.80
2019-05-26T11:16:35.557Z,21.00
2019-05-26T11:19:04.151Z,20.80
2019-05-26T11:21:33.123Z,20.30
2019-05-26T11:24:01.693Z,20.30
2019-05-26T11:26:47.907Z,20.30
2019-05-26T11:29:16.354Z,20.20
2019-05-26T11:31:44.767Z,20.20
2019-05-26T11:34:22.371Z,20.20
2019-05-26T11:36:50.791Z,20.40
2019-05-26T11:39:19.217Z,20.60
2019-05-26T11:41:54.624Z,20.50
2019-05-26T11:44:18.576Z,20.20
2019-05-26T11:47:11.049Z,20.00
2019-05-26T11:49:39.472Z,19.70
2019-05-26T11:52:07.953Z,19.80
2019-05-26T11:54:58.163Z,20.00
2019-05-26T11:57:27.361Z,20.10
2019-05-26T11:59:58.910Z,20.50
2019-05-26T12:02:27.404Z,20.70
2019-05-26T12:11:03.409Z,21.20
2019-05-26T12:13:31.849Z,20.90
2019-05-26T12:16:00.293Z,20.90
2019-05-26T12:18:34.746Z,20.80
2019-05-26T12:21:04.220Z,20.60
2019-05-26T12:23:54.955Z,20.60
2019-05-26T12:26:41.549Z,20.70
2019-05-26T12:29:10.010Z,20.70
2019-05-26T12:31:58.542Z,20.70
2019-05-26T12:34:27.908Z,20.80
2019-05-26T12:36:56.966Z,20.90
2019-05-26T12:39:26.223Z,21.00
2019-05-26T12:41:55.507Z,21.10
2019-05-26T12:44:24.802Z,21.20
2019-05-26T12:46:54.019Z,21.20
2019-05-26T12:49:23.105Z,21.10
2019-05-26T12:51:52.502Z,21.20
2019-05-26T12:54:41.173Z,21.50
2019-05-26T12:57:10.283Z,21.60
2019-05-26T12:59:38.804Z,21.60
2019-05-26T13:02:07.368Z,21.60
2019-05-26T13:04:35.823Z,21.40
2019-05-26T13:07:04.738Z,21.20
2019-05-26T13:09:33.205Z,20.90
2019-05-26T13:12:01.755Z,20.80
2019-05-26T13:14:30.271Z,20.90
2019-05-26T13:17:01.501Z,21.10
2019-05-26T13:19:29.692Z,21.20
2019-05-26T13:21:58.424Z,21.00
2019-05-26T13:24:28.878Z,20.80
2019-05-26T13:26:57.383Z,20.90
2019-05-26T13:29:26.712Z,21.00
2019-05-26T13:31:56.265Z,21.10
2019-05-26T13:34:25.336Z,21.30
2019-05-26T13:37:20.128Z,21.40
2019-05-26T13:39:49.659Z,21.60
2019-05-26T13:42:19.607Z,21.60
2019-05-26T13:45:26.869Z,21.40
2019-05-26T13:47:57.650Z,21.40
2019-05-26T13:50:27.776Z,21.70
2019-05-26T13:53:17.676Z,21.80
2019-05-26T13:55:48.556Z,21.90
2019-05-26T13:58:18.757Z,22.00
2019-05-26T14:00:48.743Z,22.00
2019-05-26T14:03:19.903Z,21.80
2019-05-26T14:05:49.686Z,21.90
2019-05-26T14:08:19.908Z,22.00
2019-05-26T14:10:50.475Z,22.10
2019-05-26T14:13:20.878Z,21.90
2019-05-26T14:15:51.375Z,21.80
2019-05-26T14:18:21.602Z,21.60
2019-05-26T14:20:52.114Z,21.20
2019-05-26T14:23:22.199Z,21.30
2019-05-26T14:25:51.307Z,21.40
2019-05-26T14:28:21.983Z,21.70
2019-05-26T14:30:51.399Z,21.80
2019-05-26T14:33:20.980Z,21.90
2019-05-26T14:35:53.282Z,21.80
2019-05-26T14:39:10.264Z,21.60
2019-05-26T14:44:31.933Z,21.40
2019-05-26T14:47:21.614Z,21.30
2019-05-26T14:49:58.384Z,21.20
2019-05-26T14:52:48.589Z,21.20
2019-05-26T14:55:20.330Z,21.20
2019-05-26T15:00:50.231Z,21.50
2019-05-26T15:06:45.747Z,21.40
2019-05-26T15:09:24.709Z,21.30
2019-05-26T15:11:49.530Z,21.30
2019-05-26T15:14:22.679Z,21.50
2019-05-26T15:16:52.715Z,21.70
2019-05-26T15:19:23.515Z,21.90
2019-05-26T15:21:53.955Z,22.10
2019-05-26T15:24:24.099Z,22.10
2019-05-26T15:26:53.060Z,22.20
2019-05-26T15:29:22.470Z,22.20
2019-05-26T15:31:52.996Z,22.20
2019-05-26T15:34:23.583Z,22.30
2019-05-26T15:50:52.028Z,22.00
2019-05-26T15:53:46.616Z,21.80
2019-05-26T15:56:17.609Z,21.90
2019-05-26T15:58:48.559Z,21.90
2019-05-26T16:01:22.888Z,22.10
2019-05-26T16:03:54.225Z,22.00
2019-05-26T16:06:23.887Z,21.90
2019-05-26T16:11:46.051Z,22.50
2019-05-26T16:14:19.267Z,22.90
2019-05-26T16:16:51.943Z,23.10
2019-05-26T16:22:18.051Z,22.90
2019-05-26T16:24:50.801Z,23.10
2019-05-26T16:27:43.200Z,22.80
2019-05-26T16:30:12.974Z,22.80
2019-05-26T16:32:41.957Z,22.80
2019-05-26T16:35:11.380Z,22.80
2019-05-26T16:37:41.049Z,22.80
2019-05-26T16:40:10.669Z,22.90
2019-05-26T16:42:39.645Z,22.80
2019-05-26T16:45:09.720Z,23.00
2019-05-26T16:47:57.568Z,23.00
2019-05-26T16:50:26.092Z,23.00
2019-05-26T16:52:54.849Z,22.70
2019-05-26T16:55:43.433Z,22.40
2019-05-26T16:58:11.851Z,22.20
2019-05-26T17:00:40.339Z,22.20
2019-05-26T17:03:08.876Z,22.30
2019-05-26T17:05:37.366Z,22.30
2019-05-26T17:08:05.833Z,22.20
2019-05-26T17:10:34.261Z,21.90
2019-05-26T17:13:22.820Z,21.70
2019-05-26T17:15:53.254Z,21.30
2019-05-26T17:18:23.244Z,21.30
2019-05-26T17:20:52.911Z,21.40
2019-05-26T17:23:23.565Z,21.50
2019-05-26T17:26:11.873Z,21.60
2019-05-26T17:28:41.088Z,21.80
2019-05-26T17:31:10.244Z,21.80
2019-05-26T17:33:39.594Z,21.40
2019-05-26T17:36:09.516Z,21.20
2019-05-26T17:38:38.363Z,21.00
2019-05-26T17:41:07.035Z,20.80
2019-05-26T17:43:35.565Z,20.90
2019-05-26T17:46:04.077Z,20.90
2019-05-26T17:48:32.547Z,20.70
2019-05-26T17:51:01.024Z,20.60
2019-05-26T17:53:29.465Z,20.70
2019-05-26T17:55:57.908Z,20.60
2019-05-26T17:58:26.387Z,20.70
2019-05-26T18:00:55.083Z,20.80
2019-05-26T18:03:24.003Z,21.00
2019-05-26T18:06:12.729Z,21.10
2019-05-26T18:09:00.501Z,21.40
2019-05-26T18:11:29.094Z,21.50
2019-05-26T18:13:57.564Z,21.40
2019-05-26T18:16:25.996Z,21.10
2019-05-26T18:18:54.460Z,20.80
2019-05-26T18:21:22.903Z,20.50
2019-05-26T18:23:51.380Z,20.20
2019-05-26T18:26:19.880Z,20.10
2019-05-26T18:28:48.354Z,19.90
2019-05-26T18:31:16.824Z,19.70
2019-05-26T18:33:45.278Z,19.60
2019-05-26T18:36:13.851Z,19.60
2019-05-26T18:38:42.424Z,19.50
2019-05-26T18:41:11.014Z,19.40
2019-05-26T18:43:58.917Z,19.20
2019-05-26T18:46:27.394Z,19.10
2019-05-26T18:48:55.876Z,19.00
2019-05-26T18:51:24.532Z,18.80
2019-05-26T18:53:53.203Z,18.80
2019-05-26T18:56:21.699Z,18.70
2019-05-26T18:58:50.362Z,18.60
2019-05-26T19:01:19.121Z,18.50
2019-05-26T19:03:48.130Z,18.30
2019-05-26T19:06:16.803Z,18.20
2019-05-26T19:08:45.475Z,18.20
2019-05-26T19:11:13.920Z,18.10
2019-05-26T19:13:42.389Z,18.00
2019-05-26T19:16:11.604Z,17.90
2019-05-26T19:18:40.275Z,17.90
2019-05-26T19:21:08.764Z,17.80
2019-05-26T19:23:37.538Z,17.70
2019-05-26T19:26:06.080Z,17.70
2019-05-26T19:28:34.524Z,17.60
2019-05-26T19:31:02.974Z,17.60
2019-05-26T19:33:31.450Z,17.60
2019-05-26T19:35:59.982Z,17.50
2019-05-26T19:38:28.438Z,17.40
2019-05-26T19:40:57.120Z,17.40
2019-05-26T19:43:25.573Z,17.40
2019-05-26T19:45:54.107Z,17.30
2019-05-26T19:48:34.961Z,17.20
2019-05-26T19:50:53.389Z,17.10
2019-05-26T19:53:22.018Z,17.00
2019-05-26T19:55:50.569Z,16.90
2019-05-26T19:58:19.439Z,16.70
2019-05-26T20:00:48.253Z,16.60
2019-05-26T20:03:16.828Z,16.40
2019-05-26T20:05:45.307Z,16.30
2019-05-26T20:08:13.839Z,16.10
2019-05-26T20:10:42.313Z,16.00
2019-05-26T20:13:10.798Z,15.90
2019-05-26T20:15:39.343Z,15.80
2019-05-26T20:18:07.802Z,15.70
2019-05-26T20:20:36.490Z,15.60
2019-05-26T20:23:05.238Z,15.50
2019-05-26T20:25:33.743Z,15.40
2019-05-26T20:28:23.300Z,15.20
2019-05-26T20:30:51.948Z,15.10
2019-05-26T20:47:21.551Z,14.60
2019-05-26T20:49:53.029Z,14.40
2019-05-26T20:52:24.104Z,14.40
2019-05-26T20:54:53.850Z,14.30
2019-05-26T20:57:22.995Z,14.20
2019-05-26T20:59:53.196Z,14.20
2019-05-26T21:02:21.684Z,14.10
2019-05-26T21:04:50.155Z,14.10
2019-05-26T21:07:18.618Z,14.00
2019-05-26T21:09:47.145Z,14.00
2019-05-26T21:12:15.709Z,14.00
2019-05-26T21:14:44.194Z,13.90
2019-05-26T21:17:12.683Z,13.90
2019-05-26T21:19:41.168Z,13.80
2019-05-26T21:22:09.659Z,13.70
2019-05-26T21:24:38.151Z,13.60
2019-05-26T21:29:56.554Z,13.50
2019-05-26T21:32:25.116Z,13.50
2019-05-26T21:34:53.736Z,13.40
2019-05-26T21:37:22.383Z,13.40
2019-05-26T21:39:51.147Z,13.30
2019-05-26T21:42:19.856Z,13.30
2019-05-26T21:44:48.745Z,13.30
2019-05-26T21:47:17.449Z,13.20
2019-05-26T21:49:46.287Z,13.20
2019-05-26T21:52:15.854Z,13.10
2019-05-26T21:54:44.511Z,13.10
2019-05-26T21:57:13.058Z,13.00
2019-05-26T21:59:41.671Z,13.00
2019-05-26T22:02:10.321Z,12.90
2019-05-26T22:08:08.846Z,12.80
2019-05-26T22:10:37.455Z,12.80
2019-05-26T22:13:37.162Z,12.70
2019-05-26T22:16:05.878Z,12.60
2019-05-26T22:18:34.352Z,12.60
2019-05-26T22:21:02.975Z,12.50
2019-05-26T22:23:31.485Z,12.50
2019-05-26T22:26:23.046Z,12.40
2019-05-26T22:28:53.823Z,12.40
2019-05-26T22:31:23.499Z,12.30
2019-05-26T22:33:53.434Z,12.30
2019-05-26T22:36:41.251Z,12.30
2019-05-26T22:39:10.374Z,12.20
2019-05-26T22:41:39.970Z,12.20
2019-05-26T22:44:09.493Z,12.10
2019-05-26T22:46:39.289Z,12.10
2019-05-26T22:49:08.451Z,12.10
2019-05-26T22:51:37.177Z,12.10
2019-05-26T22:57:55.033Z,12.00
2019-05-26T23:04:16.307Z,11.90
2019-05-26T23:06:48.211Z,11.90
2019-05-26T23:09:20.609Z,11.90
2019-05-26T23:11:52.805Z,11.90
2019-05-26T23:14:23.099Z,11.90
2019-05-26T23:16:52.346Z,11.90
2019-05-26T23:19:22.106Z,11.90
2019-05-26T23:21:53.467Z,11.80
2019-05-26T23:24:23.312Z,11.80
2019-05-26T23:26:53.760Z,11.80
2019-05-26T23:29:23.149Z,11.80
2019-05-26T23:32:12.567Z,11.70
2019-05-26T23:34:41.072Z,11.70
2019-05-26T23:37:09.557Z,11.70
2019-05-26T23:39:38.023Z,11.70
2019-05-26T23:42:06.572Z,11.70
2019-05-26T23:44:35.086Z,11.60
2019-05-26T23:47:03.575Z,11.60
2019-05-26T23:49:32.049Z,11.60
2019-05-26T23:52:00.527Z,11.60
2019-05-26T23:54:29.000Z,11.60
2019-05-26T23:56:57.480Z,11.60
2019-05-26T23:59:25.976Z,11.60
